Airfield :
LOGIN :

Register | Disclaimer

   EN    FR    IT 

 










Legend :    VFR   Marginal VFR   IFR   Intensive IFR   Very Intensive IFR
Visi :
Ceiling :
>= 8 km
>= 3000ft
5 to 8 km
1000 to 3000 ft
1500m to 5 km
500 to 1000 ft
800 to 1500m
200 to 500 ft
< 800m
< 200 ft
Symbols :   Thunderstorms  Fog  Heavy snow  Heavy precipitations  Wind > 20 kt
SIGMETs :     Misc.  Thunderstorms  Icing  Turbulence  Mountain Waves  Volcanic Ashes






- Airport Elevation : 1036 ft
- IATA code : ERF


EDDE - Erfurt

CURRENT METAR :
  • 200250Z AUTO 32019KT 9999 BKN018 BKN040 BKN047 04/02 Q1008

EXPIRED METARs :
  • 200220Z AUTO 31018KT 9999 BKN017 BKN025 OVC048 04/02 Q1008
  • 200150Z AUTO 31020KT 9999 SCT018 BKN037 04/02 Q1007
  • 200120Z AUTO 31020KT 9999 BKN018 BKN022 04/02 Q1006
  • 200050Z AUTO 31020KT 9999 -RA BKN017 BKN024 04/02 Q1006
  • 200020Z AUTO 30016KT 9999 -RA BKN017 OVC024 04/03 Q1006
  • 192350Z AUTO 31019KT 9999 -RA BKN017 BKN022 05/02 Q1005
  • 192320Z AUTO 29014G24KT 9999 -RADZ SCT015 BKN027 BKN036 05/03 Q1005
  • 192250Z AUTO 29013KT 9999 -DZ BKN017 BKN025 OVC032 05/03 Q1005
  • 192220Z AUTO 27014KT 9999 BKN017 OVC027 05/03 Q1005

TAF TAF EDDE
Valid from the 20 at 00:00 until the 21 at 00:00 UTC


192300Z 2000/2024 28013KT 9999 SCT013 BKN030
TEMPO 2000/2004 30015G25KT SCT008 BKN013
PROB30
TEMPO 2000/2005 4500 RADZ BKN008
BECMG 2004/2006 34010KT BKN013
TEMPO 2008/2015 SHRA BKN030CB
BECMG 2013/2016 34004KT
BECMG 2021/2024 RA



MET'MAP, your aeronautical weather chart ! - Copyright ORBIFLY December 2007 - Disclaimer

ORBIFLY MET'MAP TEAM :

Programming & Development : Alexandra Zaïnal
Original concept : Baudouin d'Aumeries
Technical & hardware support : Manuel Goepfert
Assistance : Marc-Olivier Méhu




SOURCES & CREDITS :

   NOAA